createdAt,value
2019-04-27T00:01:40.616Z,101121.13
2019-04-27T00:04:16.254Z,101122.09
2019-04-27T00:06:47.837Z,101119.89
2019-04-27T00:09:43.213Z,101112.59
2019-04-27T00:12:10.875Z,101108.91
2019-04-27T00:14:40.650Z,101096.69
2019-04-27T00:17:41.309Z,101096.69
2019-04-27T00:19:57.417Z,101094.35
2019-04-27T00:22:33.335Z,101105.81
2019-04-27T00:25:03.469Z,101107.55
2019-04-27T00:27:33.661Z,101100.88
2019-04-27T00:30:04.045Z,101097.09
2019-04-27T00:32:33.757Z,101096.42
2019-04-27T00:35:03.923Z,101104.06
2019-04-27T00:37:35.248Z,101106.31
2019-04-27T00:40:23.684Z,101097.06
2019-04-27T00:42:54.163Z,101095.53
2019-04-27T00:45:24.063Z,101095.86
2019-04-27T00:47:59.331Z,101097.22
2019-04-27T00:50:25.238Z,101089.08
2019-04-27T00:52:54.927Z,101082.38
2019-04-27T00:55:24.763Z,101076.47
2019-04-27T00:57:59.168Z,101067.23
2019-04-27T01:00:36.610Z,101068.92
2019-04-27T01:03:16.947Z,101070.36
2019-04-27T01:05:46.724Z,101056.70
2019-04-27T01:08:16.426Z,101064.52
2019-04-27T01:10:46.227Z,101057.55
2019-04-27T01:13:15.963Z,101050.77
2019-04-27T01:15:45.722Z,101042.92
2019-04-27T01:18:15.687Z,101042.33
2019-04-27T01:20:45.456Z,101044.58
2019-04-27T01:23:15.316Z,101036.22
2019-04-27T01:25:46.652Z,101038.72
2019-04-27T01:28:23.574Z,101031.47
2019-04-27T01:30:58.877Z,101031.29
2019-04-27T01:33:30.310Z,101027.09
2019-04-27T01:36:00.119Z,101023.53
2019-04-27T01:38:29.855Z,101015.47
2019-04-27T01:41:00.669Z,101003.17
2019-04-27T01:43:30.606Z,100996.37
2019-04-27T01:46:01.045Z,100986.66
2019-04-27T01:48:31.034Z,100985.78
2019-04-27T01:51:00.791Z,100989.63
2019-04-27T01:53:34.439Z,100988.66
2019-04-27T01:56:04.254Z,100984.20
2019-04-27T01:58:34.040Z,100989.09
2019-04-27T02:01:23.086Z,100984.04
2019-04-27T02:04:00.252Z,100985.78
2019-04-27T02:06:30.202Z,100983.73
2019-04-27T02:09:00.054Z,100991.97
2019-04-27T02:11:29.856Z,100997.40
2019-04-27T02:13:59.902Z,100996.16
2019-04-27T02:16:30.679Z,100998.00
2019-04-27T02:19:00.515Z,101005.38
2019-04-27T02:21:30.495Z,100998.12
2019-04-27T02:24:00.165Z,100993.54
2019-04-27T02:26:30.065Z,100983.66
2019-04-27T02:29:04.557Z,100984.62
2019-04-27T02:31:35.984Z,100999.95
2019-04-27T02:34:20.037Z,101004.02
2019-04-27T02:36:50.326Z,101006.14
2019-04-27T02:39:21.702Z,100998.33
2019-04-27T02:41:51.869Z,101001.52
2019-04-27T02:44:26.445Z,101000.92
2019-04-27T02:46:56.238Z,101012.67
2019-04-27T02:49:26.062Z,101012.92
2019-04-27T02:51:59.283Z,101010.50
2019-04-27T02:54:29.848Z,101002.23
2019-04-27T02:56:59.940Z,100998.97
2019-04-27T02:59:30.470Z,101010.38
2019-04-27T03:02:02.205Z,101024.72
2019-04-27T03:04:31.881Z,101029.01
2019-04-27T03:07:01.566Z,101032.06
2019-04-27T03:09:31.292Z,101027.35
2019-04-27T03:12:02.128Z,101027.09
2019-04-27T03:14:50.572Z,101020.61
2019-04-27T03:17:22.905Z,101027.09
2019-04-27T03:20:05.979Z,101017.21
2019-04-27T03:22:39.579Z,101015.38
2019-04-27T03:25:14.900Z,101015.17
2019-04-27T03:27:44.309Z,101015.38
2019-04-27T03:30:15.704Z,101005.38
2019-04-27T03:32:45.563Z,101007.83
2019-04-27T03:35:15.361Z,101010.22
2019-04-27T03:37:45.347Z,101013.05
2019-04-27T03:40:15.364Z,101017.55
2019-04-27T03:42:49.833Z,101004.66
2019-04-27T03:45:20.004Z,101001.85
2019-04-27T03:47:50.669Z,101003.13
2019-04-27T03:50:22.211Z,101008.64
2019-04-27T03:53:10.326Z,101011.02
2019-04-27T03:55:42.735Z,101011.11
2019-04-27T03:58:14.437Z,100999.60
2019-04-27T04:00:44.243Z,100995.75
2019-04-27T04:03:14.228Z,101001.27
2019-04-27T04:05:45.564Z,100988.45
2019-04-27T04:08:15.409Z,100982.05
2019-04-27T04:10:49.366Z,100980.91
2019-04-27T04:13:39.201Z,100985.86
2019-04-27T04:16:16.023Z,100992.23
2019-04-27T04:19:02.276Z,100993.45
2019-04-27T04:21:32.162Z,100991.88
2019-04-27T04:24:02.094Z,101002.78
2019-04-27T04:26:32.794Z,101004.91
2019-04-27T04:29:03.068Z,101011.19
2019-04-27T04:31:33.521Z,101013.14
2019-04-27T04:34:03.541Z,101007.92
2019-04-27T04:36:33.434Z,101007.33
2019-04-27T04:39:03.810Z,101004.91
2019-04-27T04:41:40.606Z,101001.30
2019-04-27T04:44:12.478Z,101005.12
2019-04-27T04:46:50.268Z,101010.94
2019-04-27T04:49:20.291Z,101002.48
2019-04-27T04:51:50.449Z,100988.92
2019-04-27T04:54:24.802Z,100987.13
2019-04-27T04:56:54.784Z,100988.95
2019-04-27T04:59:24.804Z,100991.71
2019-04-27T05:01:54.681Z,100994.72
2019-04-27T05:04:24.434Z,100988.02
2019-04-27T05:06:54.259Z,100990.22
2019-04-27T05:09:24.023Z,100984.77
2019-04-27T05:11:53.674Z,100995.30
2019-04-27T05:14:23.390Z,100997.00
2019-04-27T05:16:53.104Z,100979.39
2019-04-27T05:19:23.064Z,100982.43
2019-04-27T05:21:52.851Z,100981.65
2019-04-27T05:24:22.556Z,100982.41
2019-04-27T05:26:52.232Z,100977.61
2019-04-27T05:29:21.988Z,100985.38
2019-04-27T05:31:51.771Z,100976.70
2019-04-27T05:34:21.570Z,100970.66
2019-04-27T05:36:52.627Z,100972.52
2019-04-27T05:39:24.975Z,100960.95
2019-04-27T05:41:53.983Z,100961.23
2019-04-27T05:44:25.623Z,100960.13
2019-04-27T05:46:58.647Z,100962.84
2019-04-27T05:49:36.271Z,100963.27
2019-04-27T05:52:08.580Z,100958.28
2019-04-27T05:54:38.609Z,100960.84
2019-04-27T05:57:09.517Z,100956.70
2019-04-27T05:59:39.794Z,100955.02
2019-04-27T06:02:09.677Z,100952.23
2019-04-27T06:04:41.400Z,100947.62
2019-04-27T06:07:10.785Z,100938.86
2019-04-27T06:09:40.489Z,100946.70
2019-04-27T06:12:10.191Z,100947.08
2019-04-27T06:14:39.902Z,100945.68
2019-04-27T06:17:09.589Z,100943.58
2019-04-27T06:19:39.353Z,100944.57
2019-04-27T06:22:09.675Z,100940.78
2019-04-27T06:24:39.749Z,100944.89
2019-04-27T06:27:09.529Z,100938.29
2019-04-27T06:29:40.866Z,100947.08
2019-04-27T06:32:11.038Z,100935.67
2019-04-27T06:34:40.808Z,100931.00
2019-04-27T06:37:10.596Z,100933.95
2019-04-27T06:39:40.340Z,100941.69
2019-04-27T06:42:16.730Z,100933.56
2019-04-27T06:44:41.420Z,100936.76
2019-04-27T06:47:11.191Z,100929.90
2019-04-27T06:49:40.891Z,100932.81
2019-04-27T06:52:11.691Z,100925.20
2019-04-27T06:54:41.441Z,100923.85
2019-04-27T06:57:11.153Z,100921.81
2019-04-27T06:59:40.837Z,100927.58
2019-04-27T07:02:10.538Z,100914.89
2019-04-27T07:04:40.594Z,100915.83
2019-04-27T07:07:10.288Z,100919.14
2019-04-27T07:09:40.130Z,100917.98
2019-04-27T07:12:12.531Z,100915.71
2019-04-27T07:14:52.216Z,100917.03
2019-04-27T07:17:13.776Z,100917.52
2019-04-27T07:19:43.445Z,100914.75
2019-04-27T07:22:13.235Z,100914.09
2019-04-27T07:24:42.919Z,100914.33
2019-04-27T07:27:12.679Z,100909.42
2019-04-27T07:29:44.651Z,100913.38
2019-04-27T07:32:13.859Z,100913.32
2019-04-27T07:34:43.547Z,100906.52
2019-04-27T07:37:13.282Z,100905.15
2019-04-27T07:39:42.953Z,100901.61
2019-04-27T07:42:12.661Z,100904.73
2019-04-27T07:44:47.077Z,100902.09
2019-04-27T07:47:19.456Z,100896.54
2019-04-27T07:49:51.289Z,100905.47
2019-04-27T07:52:21.354Z,100903.26
2019-04-27T07:54:51.356Z,100901.50
2019-04-27T07:57:21.199Z,100893.44
2019-04-27T07:59:50.953Z,100894.00
2019-04-27T08:02:20.614Z,100894.13
2019-04-27T08:04:50.634Z,100897.27
2019-04-27T08:07:20.303Z,100896.05
2019-04-27T08:09:50.089Z,100894.11
2019-04-27T08:12:20.898Z,100890.83
2019-04-27T08:14:50.713Z,100894.33
2019-04-27T08:17:20.544Z,100895.33
2019-04-27T08:19:50.243Z,100890.06
2019-04-27T08:22:19.927Z,100893.70
2019-04-27T08:24:49.932Z,100890.53
2019-04-27T08:27:33.306Z,100895.38
2019-04-27T08:30:17.172Z,100894.16
2019-04-27T08:32:54.658Z,100890.63
2019-04-27T08:35:24.429Z,100889.94
2019-04-27T08:37:54.106Z,100892.22
2019-04-27T08:40:23.954Z,100888.92
2019-04-27T08:42:55.727Z,100889.66
2019-04-27T08:45:25.672Z,100885.90
2019-04-27T08:47:55.417Z,100894.92
2019-04-27T08:50:25.122Z,100887.87
2019-04-27T08:53:00.905Z,100883.58
2019-04-27T08:55:30.618Z,100886.74
2019-04-27T08:58:00.297Z,100887.33
2019-04-27T09:00:30.089Z,100883.81
2019-04-27T09:02:59.773Z,100886.09
2019-04-27T09:05:29.473Z,100881.60
2019-04-27T09:08:08.746Z,100884.26
2019-04-27T09:10:40.193Z,100878.53
2019-04-27T09:13:11.524Z,100878.30
2019-04-27T09:15:49.457Z,100882.06
2019-04-27T09:18:21.307Z,100882.63
2019-04-27T09:20:58.987Z,100875.70
2019-04-27T09:23:28.778Z,100873.28
2019-04-27T09:25:59.461Z,100876.08
2019-04-27T09:28:29.593Z,100872.45
2019-04-27T09:30:59.354Z,100871.48
2019-04-27T09:33:29.042Z,100858.25
2019-04-27T09:35:58.878Z,100865.94
2019-04-27T09:38:29.817Z,100860.09
2019-04-27T09:40:59.723Z,100859.97
2019-04-27T09:43:31.480Z,100861.16
2019-04-27T09:46:01.890Z,100861.88
2019-04-27T09:48:33.797Z,100860.09
2019-04-27T09:51:06.493Z,100859.05
2019-04-27T09:53:46.184Z,100857.12
2019-04-27T09:56:18.220Z,100852.71
2019-04-27T09:58:49.433Z,100850.98
2019-04-27T10:01:20.528Z,100850.77
2019-04-27T10:03:50.425Z,100852.61
2019-04-27T10:06:20.332Z,100846.25
2019-04-27T10:08:50.033Z,100844.92
2019-04-27T10:11:19.812Z,100845.27
2019-04-27T10:13:49.491Z,100839.11
2019-04-27T10:16:19.323Z,100828.07
2019-04-27T10:18:49.166Z,100833.54
2019-04-27T10:21:18.874Z,100833.84
2019-04-27T10:23:48.592Z,100840.37
2019-04-27T10:26:18.295Z,100833.69
2019-04-27T10:28:49.448Z,100833.45
2019-04-27T10:31:19.216Z,100837.47
2019-04-27T10:33:48.877Z,100839.66
2019-04-27T10:36:20.326Z,100836.14
2019-04-27T10:38:50.012Z,100827.72
2019-04-27T10:41:19.889Z,100834.14
2019-04-27T10:43:49.573Z,100820.77
2019-04-27T10:46:19.350Z,100822.74
2019-04-27T10:48:49.072Z,100817.75
2019-04-27T10:51:18.802Z,100821.98
2019-04-27T10:53:48.596Z,100826.46
2019-04-27T10:56:18.310Z,100815.56
2019-04-27T10:58:48.075Z,100815.49
2019-04-27T11:01:17.828Z,100806.50
2019-04-27T11:03:51.859Z,100811.97
2019-04-27T11:06:39.510Z,100802.47
2019-04-27T11:09:12.597Z,100811.66
2019-04-27T11:11:42.433Z,100812.05
2019-04-27T11:14:12.499Z,100809.51
2019-04-27T11:16:42.254Z,100799.19
2019-04-27T11:19:12.065Z,100809.67
2019-04-27T11:21:41.780Z,100805.30
2019-04-27T11:24:11.462Z,100808.86
2019-04-27T11:26:41.183Z,100804.73
2019-04-27T11:29:10.938Z,100805.20
2019-04-27T11:31:40.621Z,100803.41
2019-04-27T11:34:10.498Z,100805.50
2019-04-27T11:36:50.741Z,100798.33
2019-04-27T11:39:21.234Z,100796.00
2019-04-27T11:41:50.982Z,100799.08
2019-04-27T11:44:20.701Z,100799.08
2019-04-27T11:46:50.528Z,100796.13
2019-04-27T11:49:20.236Z,100792.23
2019-04-27T11:51:50.244Z,100792.78
2019-04-27T11:54:20.070Z,100790.34
2019-04-27T11:56:49.815Z,100797.28
2019-04-27T11:59:19.683Z,100790.34
2019-04-27T12:01:49.526Z,100796.45
2019-04-27T12:04:19.600Z,100791.55
2019-04-27T12:06:49.435Z,100792.53
2019-04-27T12:09:19.135Z,100794.97
2019-04-27T12:11:49.042Z,100798.50
2019-04-27T12:14:18.795Z,100788.64
2019-04-27T12:16:48.486Z,100793.02
2019-04-27T12:19:18.169Z,100790.25
2019-04-27T12:21:47.845Z,100783.05
2019-04-27T12:24:17.947Z,100774.87
2019-04-27T12:26:58.245Z,100778.45
2019-04-27T12:29:29.610Z,100773.13
2019-04-27T12:31:59.420Z,100766.21
2019-04-27T12:34:29.187Z,100774.87
2019-04-27T12:36:58.851Z,100772.36
2019-04-27T12:39:28.556Z,100774.45
2019-04-27T12:41:58.218Z,100775.09
2019-04-27T12:44:27.971Z,100764.95
2019-04-27T12:47:02.513Z,100757.48
2019-04-27T12:49:29.117Z,100752.12
2019-04-27T12:51:58.794Z,100753.64
2019-04-27T12:54:31.641Z,100757.77
2019-04-27T12:57:03.223Z,100758.86
2019-04-27T12:59:50.679Z,100746.27
2019-04-27T13:02:22.227Z,100753.00
2019-04-27T13:04:52.010Z,100748.33
2019-04-27T13:07:22.798Z,100748.78
2019-04-27T13:09:52.631Z,100750.05
2019-04-27T13:12:22.398Z,100744.63
2019-04-27T13:14:52.166Z,100751.02
2019-04-27T13:17:21.934Z,100751.37
2019-04-27T13:19:51.642Z,100751.89
2019-04-27T13:22:21.333Z,100745.31
2019-04-27T13:24:51.026Z,100739.72
2019-04-27T13:27:20.689Z,100729.00
2019-04-27T13:29:50.458Z,100734.89
2019-04-27T13:32:20.215Z,100734.19
2019-04-27T13:34:49.898Z,100733.83
2019-04-27T13:37:33.512Z,100742.80
2019-04-27T13:40:09.063Z,100735.23
2019-04-27T13:42:39.816Z,100735.15
2019-04-27T13:45:11.213Z,100730.92
2019-04-27T13:47:48.339Z,100726.67
2019-04-27T13:50:19.913Z,100726.57
2019-04-27T13:52:56.968Z,100734.55
2019-04-27T13:55:26.819Z,100724.17
2019-04-27T13:57:56.503Z,100725.20
2019-04-27T14:00:26.312Z,100722.95
2019-04-27T14:02:55.981Z,100729.25
2019-04-27T14:05:25.671Z,100725.03
2019-04-27T14:07:55.424Z,100723.52
2019-04-27T14:10:25.107Z,100730.98
2019-04-27T14:12:54.862Z,100731.05
2019-04-27T14:15:24.548Z,100733.51
2019-04-27T14:17:54.342Z,100728.51
2019-04-27T14:20:24.010Z,100726.72
2019-04-27T14:22:55.321Z,100734.61
2019-04-27T14:25:25.126Z,100729.38
2019-04-27T14:27:54.872Z,100725.00
2019-04-27T14:30:24.726Z,100729.86
2019-04-27T14:32:54.471Z,100729.05
2019-04-27T14:35:24.170Z,100736.95
2019-04-27T14:37:53.850Z,100739.34
2019-04-27T14:40:23.686Z,100751.11
2019-04-27T14:42:53.862Z,100749.95
2019-04-27T14:45:23.898Z,100748.94
2019-04-27T14:47:53.591Z,100754.61
2019-04-27T14:50:23.403Z,100757.91
2019-04-27T14:52:56.626Z,100759.69
2019-04-27T14:55:26.387Z,100768.98
2019-04-27T14:57:56.107Z,100774.05
2019-04-27T15:00:25.937Z,100765.53
2019-04-27T15:02:55.625Z,100774.98
2019-04-27T15:05:25.387Z,100774.84
2019-04-27T15:07:55.182Z,100773.64
2019-04-27T15:10:27.106Z,100774.22
2019-04-27T15:12:56.238Z,100774.84
2019-04-27T15:15:28.356Z,100768.66
2019-04-27T15:18:04.462Z,100775.19
2019-04-27T15:20:41.019Z,100782.68
2019-04-27T15:23:10.255Z,100788.22
2019-04-27T15:25:45.763Z,100796.26
2019-04-27T15:28:15.261Z,100808.84
2019-04-27T15:30:59.529Z,100810.33
2019-04-27T15:33:51.449Z,100822.00
2019-04-27T15:36:22.628Z,100819.55
2019-04-27T15:38:58.463Z,100827.79
2019-04-27T15:41:31.515Z,100829.28
2019-04-27T15:44:05.726Z,100828.75
2019-04-27T15:46:35.028Z,100834.69
2019-04-27T15:49:09.618Z,100836.97
2019-04-27T15:51:38.234Z,100836.42
2019-04-27T15:54:08.161Z,100841.41
2019-04-27T15:56:38.081Z,100852.12
2019-04-27T15:59:08.701Z,100853.83
2019-04-27T16:01:39.591Z,100863.30
2019-04-27T16:04:11.276Z,100862.20
2019-04-27T16:06:42.942Z,100873.30
2019-04-27T16:09:15.978Z,100869.49
2019-04-27T16:11:50.037Z,100873.45
2019-04-27T16:14:18.881Z,100879.50
2019-04-27T16:16:48.923Z,100885.22
2019-04-27T16:19:19.693Z,100888.58
2019-04-27T16:21:54.142Z,100892.59
2019-04-27T16:24:21.421Z,100889.08
2019-04-27T16:26:55.748Z,100882.62
2019-04-27T16:29:23.083Z,100879.89
2019-04-27T16:31:54.324Z,100869.71
2019-04-27T16:34:24.316Z,100869.34
2019-04-27T16:36:54.266Z,100873.44
2019-04-27T16:39:24.166Z,100867.09
2019-04-27T16:41:53.962Z,100874.06
2019-04-27T16:44:23.770Z,100872.28
2019-04-27T16:46:53.503Z,100877.37
2019-04-27T16:49:23.571Z,100878.66
2019-04-27T16:51:53.326Z,100883.78
2019-04-27T16:54:28.162Z,100887.34
2019-04-27T16:57:03.289Z,100899.74
2019-04-27T16:59:43.308Z,100900.00
2019-04-27T17:02:01.666Z,100903.55
2019-04-27T17:04:31.614Z,100900.92
2019-04-27T17:07:01.379Z,100911.95
2019-04-27T17:09:31.174Z,100911.47
2019-04-27T17:12:00.943Z,100915.45
2019-04-27T17:14:36.721Z,100915.71
2019-04-27T17:17:11.921Z,100901.69
2019-04-27T17:19:43.907Z,100880.66
2019-04-27T17:22:14.766Z,100878.80
2019-04-27T17:24:48.647Z,100880.92
2019-04-27T17:27:21.899Z,100877.45
2019-04-27T17:29:57.477Z,100886.98
2019-04-27T17:32:25.552Z,100892.70
2019-04-27T17:34:55.565Z,100900.88
2019-04-27T17:37:25.224Z,100903.98
2019-04-27T17:39:59.501Z,100903.12
2019-04-27T17:42:27.485Z,100898.53
2019-04-27T17:45:00.487Z,100899.77
2019-04-27T17:47:30.053Z,100905.33
2019-04-27T17:49:59.960Z,100911.89
2019-04-27T17:52:29.857Z,100911.05
2019-04-27T17:55:00.618Z,100908.81
2019-04-27T17:57:30.541Z,100908.18
2019-04-27T18:00:03.371Z,100917.73
2019-04-27T18:02:33.837Z,100919.22
2019-04-27T18:05:03.279Z,100921.37
2019-04-27T18:07:34.950Z,100923.23
2019-04-27T18:10:05.205Z,100921.73
2019-04-27T18:12:34.887Z,100920.48
2019-04-27T18:15:05.750Z,100915.91
2019-04-27T18:17:36.383Z,100910.81
2019-04-27T18:20:21.546Z,100918.45
2019-04-27T18:22:55.583Z,100916.48
2019-04-27T18:25:25.263Z,100936.15
2019-04-27T18:27:58.207Z,100937.23
2019-04-27T18:30:33.635Z,100940.33
2019-04-27T18:33:02.272Z,100947.81
2019-04-27T18:35:32.120Z,100943.45
2019-04-27T18:38:02.079Z,100944.20
2019-04-27T18:40:33.260Z,100947.02
2019-04-27T18:43:06.341Z,100952.97
2019-04-27T18:45:38.075Z,100947.11
2019-04-27T18:48:13.544Z,100950.20
2019-04-27T18:50:43.546Z,100948.94
2019-04-27T18:53:23.251Z,100960.42
2019-04-27T18:55:56.979Z,100970.70
2019-04-27T18:58:22.839Z,100981.59
2019-04-27T19:00:52.683Z,100977.27
2019-04-27T19:03:22.412Z,100979.84
2019-04-27T19:05:52.093Z,100977.73
2019-04-27T19:08:21.782Z,100982.18
2019-04-27T19:10:51.542Z,100981.91
2019-04-27T19:13:21.483Z,100988.39
2019-04-27T19:15:51.227Z,100990.26
2019-04-27T19:18:20.997Z,100992.69
2019-04-27T19:20:50.744Z,100992.41
2019-04-27T19:23:20.555Z,101001.30
2019-04-27T19:25:52.021Z,101009.28
2019-04-27T19:28:42.596Z,101003.69
2019-04-27T19:31:16.713Z,101010.63
2019-04-27T19:33:48.043Z,101013.06
2019-04-27T19:36:19.179Z,101019.10
2019-04-27T19:38:49.770Z,101025.05
2019-04-27T19:41:19.713Z,101012.68
2019-04-27T19:43:49.478Z,101021.89
2019-04-27T19:46:20.033Z,101019.17
2019-04-27T19:48:50.144Z,101025.22
2019-04-27T19:51:19.826Z,101029.42
2019-04-27T19:53:50.736Z,101031.64
2019-04-27T19:56:21.402Z,101034.27
2019-04-27T19:58:53.012Z,101033.44
2019-04-27T20:01:30.254Z,101040.46
2019-04-27T20:04:04.307Z,101038.50
2019-04-27T20:06:34.057Z,101029.97
2019-04-27T20:09:13.191Z,101025.69
2019-04-27T20:11:43.001Z,101028.91
2019-04-27T20:14:12.759Z,101019.78
2019-04-27T20:16:42.512Z,101024.17
2019-04-27T20:19:12.267Z,101028.41
2019-04-27T20:21:42.003Z,101031.41
2019-04-27T20:24:11.887Z,101035.49
2019-04-27T20:26:41.551Z,101037.23
2019-04-27T20:29:11.856Z,101039.52
2019-04-27T20:31:41.867Z,101045.61
2019-04-27T20:34:13.339Z,101052.66
2019-04-27T20:36:43.076Z,101047.28
2019-04-27T20:39:12.811Z,101050.45
2019-04-27T20:41:42.491Z,101041.37
2019-04-27T20:44:12.767Z,101054.14
2019-04-27T20:46:42.701Z,101051.49
2019-04-27T20:49:14.104Z,101056.92
2019-04-27T20:52:01.050Z,101054.67
2019-04-27T20:54:32.594Z,101050.22
2019-04-27T20:57:02.340Z,101050.56
2019-04-27T20:59:32.091Z,101055.66
2019-04-27T21:02:22.210Z,101056.59
2019-04-27T21:04:52.853Z,101055.83
2019-04-27T21:07:24.287Z,101067.88
2019-04-27T21:09:56.794Z,101072.47
2019-04-27T21:12:26.669Z,101067.66
2019-04-27T21:14:56.345Z,101068.61
2019-04-27T21:17:26.027Z,101079.95
2019-04-27T21:19:55.726Z,101071.85
2019-04-27T21:22:25.417Z,101073.59
2019-04-27T21:24:55.189Z,101074.09
2019-04-27T21:27:24.996Z,101072.95
2019-04-27T21:29:54.693Z,101075.83
2019-04-27T21:32:24.366Z,101078.05
2019-04-27T21:34:54.072Z,101083.70
2019-04-27T21:37:25.220Z,101084.30
2019-04-27T21:40:12.973Z,101085.19
2019-04-27T21:42:47.693Z,101086.38
2019-04-27T21:45:18.870Z,101091.05
2019-04-27T21:47:48.572Z,101092.50
2019-04-27T21:50:20.591Z,101100.56
2019-04-27T21:53:00.589Z,101097.08
2019-04-27T21:55:33.025Z,101102.59
2019-04-27T21:58:02.779Z,101107.90
2019-04-27T22:00:39.124Z,101107.52
2019-04-27T22:03:17.386Z,101113.20
2019-04-27T22:05:47.083Z,101111.30
2019-04-27T22:08:16.934Z,101118.81
2019-04-27T22:10:46.633Z,101115.50
2019-04-27T22:13:17.550Z,101121.11
2019-04-27T22:15:47.245Z,101128.71
2019-04-27T22:18:16.989Z,101131.86
2019-04-27T22:20:46.769Z,101134.31
2019-04-27T22:23:18.175Z,101132.78
2019-04-27T22:25:47.869Z,101140.22
2019-04-27T22:28:17.633Z,101134.31
2019-04-27T22:30:47.337Z,101137.75
2019-04-27T22:33:17.012Z,101133.55
2019-04-27T22:35:46.702Z,101131.26
2019-04-27T22:38:16.553Z,101132.27
2019-04-27T22:40:56.855Z,101131.20
2019-04-27T22:43:44.560Z,101132.23
2019-04-27T22:46:18.685Z,101127.94
2019-04-27T22:48:48.426Z,101127.43
2019-04-27T22:51:18.275Z,101125.69
2019-04-27T22:53:47.962Z,101132.27
2019-04-27T22:56:19.320Z,101139.48
2019-04-27T22:59:07.207Z,101139.09
2019-04-27T23:01:42.666Z,101135.23
2019-04-27T23:04:14.154Z,101136.80
2019-04-27T23:06:43.852Z,101138.13
2019-04-27T23:09:13.798Z,101133.88
2019-04-27T23:11:43.507Z,101139.90
2019-04-27T23:14:13.184Z,101143.38
2019-04-27T23:16:44.595Z,101141.08
2019-04-27T23:19:14.271Z,101132.84
2019-04-27T23:21:43.979Z,101136.80
2019-04-27T23:24:13.667Z,101137.30
2019-04-27T23:26:43.451Z,101135.77
2019-04-27T23:29:15.832Z,101142.44
2019-04-27T23:31:46.453Z,101148.58
2019-04-27T23:34:16.214Z,101145.36
2019-04-27T23:36:45.982Z,101151.88
2019-04-27T23:39:15.806Z,101147.89
2019-04-27T23:41:45.506Z,101150.61
2019-04-27T23:44:15.249Z,101153.45
2019-04-27T23:46:44.950Z,101156.63
2019-04-27T23:49:14.633Z,101149.46
2019-04-27T23:51:59.368Z,101154.94
2019-04-27T23:54:29.111Z,101154.94
2019-04-27T23:57:04.821Z,101155.91
2019-04-27T23:59:34.582Z,101157.66
